createdAt,value
2023-02-20T00:01:54.519Z,0.70
2023-02-20T00:04:23.819Z,0.70
2023-02-20T00:06:52.848Z,0.70
2023-02-20T00:09:21.654Z,0.70
2023-02-20T00:11:50.487Z,0.70
2023-02-20T00:14:19.487Z,0.70
2023-02-20T00:16:48.858Z,0.80
2023-02-20T00:19:18.013Z,0.70
2023-02-20T00:21:52.296Z,0.70
2023-02-20T00:24:21.356Z,0.70
2023-02-20T00:26:53.507Z,0.70
2023-02-20T00:29:24.931Z,0.70
2023-02-20T00:31:59.383Z,0.70
2023-02-20T00:34:29.539Z,0.70
2023-02-20T00:36:58.518Z,0.70
2023-02-20T00:39:27.322Z,0.70
2023-02-20T00:41:59.716Z,0.70
2023-02-20T00:44:28.594Z,0.70
2023-02-20T00:46:57.881Z,0.80
2023-02-20T00:49:26.840Z,0.70
2023-02-20T00:51:55.773Z,0.70
2023-02-20T00:54:25.229Z,0.70
2023-02-20T00:56:54.104Z,0.70
2023-02-20T00:59:22.947Z,0.70
2023-02-20T01:01:52.601Z,0.70
2023-02-20T01:04:21.792Z,0.70
2023-02-20T01:06:50.769Z,0.70
2023-02-20T01:09:20.171Z,0.70
2023-02-20T01:11:50.292Z,0.70
2023-02-20T01:14:19.265Z,0.70
2023-02-20T01:16:50.043Z,0.70
2023-02-20T01:19:20.648Z,0.70
2023-02-20T01:21:49.727Z,0.70
2023-02-20T01:24:20.058Z,0.70
2023-02-20T01:26:50.768Z,0.70
2023-02-20T01:29:19.958Z,0.70
2023-02-20T01:31:53.409Z,0.70
2023-02-20T01:34:22.855Z,0.70
2023-02-20T01:36:53.961Z,0.70
2023-02-20T01:39:28.276Z,0.70
2023-02-20T01:42:00.888Z,0.70
2023-02-20T01:44:34.085Z,0.70
2023-02-20T01:47:10.718Z,0.70
2023-02-20T01:49:42.243Z,0.70
2023-02-20T01:52:22.093Z,0.70
2023-02-20T01:54:57.474Z,0.70
2023-02-20T01:57:29.413Z,0.70
2023-02-20T02:00:07.809Z,0.70
2023-02-20T02:02:49.376Z,0.70
2023-02-20T02:05:19.423Z,0.70
2023-02-20T02:07:48.760Z,0.70
2023-02-20T02:10:21.426Z,0.70
2023-02-20T02:12:54.044Z,0.70
2023-02-20T02:15:24.837Z,0.70
2023-02-20T02:18:09.372Z,0.70
2023-02-20T02:21:02.926Z,0.70
2023-02-20T02:23:50.506Z,0.70
2023-02-20T02:27:04.164Z,0.70
2023-02-20T02:30:04.558Z,0.70
2023-02-20T02:33:00.643Z,0.70
2023-02-20T02:35:54.410Z,0.80
2023-02-20T02:38:34.174Z,0.70
2023-02-20T02:41:09.275Z,0.70
2023-02-20T02:43:58.259Z,0.70
2023-02-20T02:46:50.996Z,0.68
2023-02-20T02:49:32.039Z,0.60
2023-02-20T02:52:02.280Z,0.60
2023-02-20T02:54:31.260Z,0.60
2023-02-20T02:57:19.077Z,0.70
2023-02-20T02:59:52.376Z,0.70
2023-02-20T03:02:25.244Z,0.70
2023-02-20T03:04:55.609Z,0.70
2023-02-20T03:07:25.351Z,0.70
2023-02-20T03:10:04.074Z,0.70
2023-02-20T03:12:42.840Z,0.70
2023-02-20T03:15:35.276Z,0.60
2023-02-20T03:18:35.427Z,0.70
2023-02-20T03:21:19.471Z,0.70
2023-02-20T03:23:55.337Z,0.60
2023-02-20T03:26:32.678Z,0.70
2023-02-20T03:29:14.383Z,0.60
2023-02-20T03:32:24.488Z,0.60
2023-02-20T03:35:14.026Z,0.60
2023-02-20T03:38:03.557Z,0.60
2023-02-20T03:40:52.421Z,0.60
2023-02-20T03:43:22.702Z,0.60
2023-02-20T03:45:53.656Z,0.60
2023-02-20T03:48:34.439Z,0.60
2023-02-20T03:51:13.342Z,0.60
2023-02-20T03:53:57.649Z,0.60
2023-02-20T03:56:33.714Z,0.60
2023-02-20T03:59:12.019Z,0.60
2023-02-20T04:01:44.355Z,0.60
2023-02-20T04:04:20.096Z,0.60
2023-02-20T04:06:53.114Z,0.70
2023-02-20T04:09:34.431Z,0.60
2023-02-20T04:12:16.422Z,0.60
2023-02-20T04:14:47.993Z,0.60
2023-02-20T04:17:28.182Z,0.60
2023-02-20T04:19:57.178Z,0.60
2023-02-20T04:22:32.477Z,0.70
2023-02-20T04:25:08.003Z,0.63
2023-02-20T04:27:37.482Z,0.70
2023-02-20T04:30:07.013Z,0.60
2023-02-20T04:32:36.176Z,0.60
2023-02-20T04:35:05.459Z,0.60
2023-02-20T04:37:34.494Z,0.60
2023-02-20T04:40:03.436Z,0.63
2023-02-20T04:42:33.650Z,0.60
2023-02-20T04:45:02.743Z,0.60
2023-02-20T04:47:33.362Z,0.60
2023-02-20T04:50:03.165Z,0.63
2023-02-20T04:52:32.186Z,0.60
2023-02-20T04:55:01.119Z,0.60
2023-02-20T04:57:31.876Z,0.70
2023-02-20T05:00:00.844Z,0.70
2023-02-20T05:02:32.666Z,0.70
2023-02-20T05:05:01.820Z,0.63
2023-02-20T05:07:31.466Z,0.70
2023-02-20T05:10:00.333Z,0.70
2023-02-20T05:12:29.128Z,0.60
2023-02-20T05:14:58.001Z,0.70
2023-02-20T05:17:26.808Z,0.65
2023-02-20T05:19:55.676Z,0.60
2023-02-20T05:22:24.641Z,0.70
2023-02-20T05:24:53.616Z,0.60
2023-02-20T05:27:24.432Z,0.60
2023-02-20T05:29:59.232Z,0.70
2023-02-20T05:32:30.375Z,0.70
2023-02-20T05:34:59.819Z,0.63
2023-02-20T05:37:29.200Z,0.70
2023-02-20T05:39:58.041Z,0.63
2023-02-20T05:42:26.828Z,0.60
2023-02-20T05:44:55.742Z,0.63
2023-02-20T05:47:24.556Z,0.70
2023-02-20T05:49:53.471Z,0.60
2023-02-20T05:52:22.433Z,0.60
2023-02-20T05:54:51.311Z,0.60
2023-02-20T05:57:20.150Z,0.60
2023-02-20T05:59:48.945Z,0.60
2023-02-20T06:02:18.734Z,0.60
2023-02-20T06:04:47.840Z,0.60
2023-02-20T06:07:16.812Z,0.60
2023-02-20T06:09:45.892Z,0.60
2023-02-20T06:12:15.369Z,0.60
2023-02-20T06:14:44.209Z,0.60
2023-02-20T06:17:13.050Z,0.60
2023-02-20T06:19:42.018Z,0.60
2023-02-20T06:22:10.890Z,0.60
2023-02-20T06:24:39.693Z,0.70
2023-02-20T06:27:09.308Z,0.60
2023-02-20T06:29:38.366Z,0.60
2023-02-20T06:32:07.635Z,0.60
2023-02-20T06:34:36.699Z,0.70
2023-02-20T06:37:05.961Z,0.70
2023-02-20T06:39:34.797Z,0.70
2023-02-20T06:42:03.821Z,0.60
2023-02-20T06:44:33.991Z,0.60
2023-02-20T06:47:02.928Z,0.60
2023-02-20T06:49:31.736Z,0.60
2023-02-20T06:52:01.976Z,0.60
2023-02-20T06:54:34.842Z,0.60
2023-02-20T06:57:03.763Z,0.60
2023-02-20T06:59:32.844Z,0.60
2023-02-20T07:02:02.453Z,0.60
2023-02-20T07:04:31.728Z,0.60
2023-02-20T07:07:01.009Z,0.60
2023-02-20T07:09:30.046Z,0.52
2023-02-20T07:11:59.496Z,0.50
2023-02-20T07:14:28.370Z,0.60
2023-02-20T07:16:57.230Z,0.50
2023-02-20T07:19:26.209Z,0.60
2023-02-20T07:21:55.050Z,0.60
2023-02-20T07:24:23.937Z,0.60
2023-02-20T07:29:21.670Z,0.60
2023-02-20T07:31:50.619Z,0.50
2023-02-20T07:34:19.464Z,0.60
2023-02-20T07:36:48.454Z,0.60
2023-02-20T07:39:17.534Z,0.60
2023-02-20T07:41:47.263Z,0.60
2023-02-20T07:44:54.348Z,0.60
2023-02-20T07:47:23.276Z,0.60
2023-02-20T07:49:52.145Z,0.60
2023-02-20T07:52:21.166Z,0.60
2023-02-20T07:54:50.023Z,0.60
2023-02-20T07:57:19.005Z,0.60
2023-02-20T07:59:47.929Z,0.50
2023-02-20T08:02:17.341Z,0.60
2023-02-20T08:04:46.460Z,0.60
2023-02-20T08:07:15.436Z,0.60
2023-02-20T08:09:44.485Z,0.60
2023-02-20T08:12:14.580Z,0.60
2023-02-20T08:14:44.586Z,0.50
2023-02-20T08:17:13.543Z,0.60
2023-02-20T08:19:42.342Z,0.50
2023-02-20T08:22:11.377Z,0.55
2023-02-20T08:24:40.266Z,0.50
2023-02-20T08:27:09.205Z,0.60
2023-02-20T08:29:38.084Z,0.52
2023-02-20T08:32:07.174Z,0.50
2023-02-20T08:34:36.288Z,0.50
2023-02-20T08:37:05.205Z,0.40
2023-02-20T08:39:34.139Z,0.50
2023-02-20T08:42:03.142Z,0.50
2023-02-20T08:44:32.041Z,0.50
2023-02-20T08:47:00.891Z,0.50
2023-02-20T08:49:29.760Z,0.50
2023-02-20T08:51:58.956Z,0.50
2023-02-20T08:54:27.857Z,0.50
2023-02-20T08:56:56.724Z,0.50
2023-02-20T08:59:25.666Z,0.50
2023-02-20T09:01:55.768Z,0.50
2023-02-20T09:04:24.977Z,0.50
2023-02-20T09:06:54.087Z,0.60
2023-02-20T09:09:22.928Z,0.52
2023-02-20T09:11:51.915Z,0.50
2023-02-20T09:14:20.956Z,0.60
2023-02-20T09:16:53.148Z,0.50
2023-02-20T09:19:22.134Z,0.50
2023-02-20T09:21:52.114Z,0.60
2023-02-20T09:24:20.977Z,0.50
2023-02-20T09:26:50.018Z,0.50
2023-02-20T09:29:19.025Z,0.50
2023-02-20T09:31:48.020Z,0.60
2023-02-20T09:34:17.301Z,0.60
2023-02-20T09:36:46.344Z,0.50
2023-02-20T09:39:18.378Z,0.55
2023-02-20T09:41:59.512Z,0.60
2023-02-20T09:44:36.099Z,0.52
2023-02-20T09:47:32.518Z,0.60
2023-02-20T09:52:41.412Z,0.50
2023-02-20T09:55:18.523Z,0.60
2023-02-20T09:57:51.198Z,0.60
2023-02-20T10:00:33.663Z,0.52
2023-02-20T10:03:35.827Z,0.52
2023-02-20T10:06:20.807Z,0.50
2023-02-20T10:08:51.429Z,0.60
2023-02-20T10:11:58.192Z,0.60
2023-02-20T10:14:48.785Z,0.60
2023-02-20T10:17:20.768Z,0.60
2023-02-20T10:19:56.877Z,0.60
2023-02-20T10:22:49.049Z,0.70
2023-02-20T10:25:44.105Z,0.60
2023-02-20T10:28:19.059Z,0.60
2023-02-20T10:31:21.129Z,0.60
2023-02-20T10:34:04.882Z,0.60
2023-02-20T10:36:55.946Z,0.60
2023-02-20T10:39:26.646Z,0.60
2023-02-20T10:42:23.714Z,0.60
2023-02-20T10:45:11.071Z,0.60
2023-02-20T10:47:52.153Z,0.60
2023-02-20T10:50:24.013Z,0.60
2023-02-20T10:53:02.456Z,0.60
2023-02-20T10:56:13.672Z,0.60
2023-02-20T10:58:58.699Z,0.60
2023-02-20T11:01:29.357Z,0.60
2023-02-20T11:04:08.091Z,0.60
2023-02-20T11:07:02.725Z,0.60
2023-02-20T11:09:31.757Z,0.60
2023-02-20T11:12:02.010Z,0.50
2023-02-20T11:14:44.485Z,0.60
2023-02-20T11:17:14.838Z,0.60
2023-02-20T11:19:45.980Z,0.60
2023-02-20T11:22:16.650Z,0.60
2023-02-20T11:24:47.253Z,0.60
2023-02-20T11:27:26.670Z,0.60
2023-02-20T11:30:05.268Z,0.60
2023-02-20T11:32:38.009Z,0.60
2023-02-20T11:39:01.935Z,0.60
2023-02-20T11:41:37.484Z,0.60
2023-02-20T11:44:15.612Z,0.55
2023-02-20T11:46:45.351Z,0.60
2023-02-20T11:49:29.671Z,0.60
2023-02-20T11:52:19.032Z,0.50
2023-02-20T11:54:49.583Z,0.55
2023-02-20T11:57:29.830Z,0.60
2023-02-20T12:00:20.888Z,0.50
2023-02-20T12:02:55.370Z,0.50
2023-02-20T12:05:39.801Z,0.50
2023-02-20T12:08:30.058Z,0.50
2023-02-20T12:11:18.645Z,0.52
2023-02-20T12:13:49.772Z,0.60
2023-02-20T12:16:28.593Z,0.50
2023-02-20T12:19:21.495Z,0.50
2023-02-20T12:22:16.035Z,0.50
2023-02-20T12:28:05.171Z,0.50
2023-02-20T12:31:02.988Z,0.50
2023-02-20T12:33:49.432Z,0.50
2023-02-20T12:36:37.270Z,0.60
2023-02-20T12:39:06.240Z,0.50
2023-02-20T12:42:04.037Z,0.50
2023-02-20T12:44:45.292Z,0.60
2023-02-20T12:47:23.683Z,0.50
2023-02-20T12:49:58.361Z,0.50
2023-02-20T12:52:36.247Z,0.50
2023-02-20T12:55:19.904Z,0.50
2023-02-20T13:00:31.089Z,0.55
2023-02-20T13:03:09.538Z,0.50
2023-02-20T13:05:44.779Z,0.50
2023-02-20T13:08:33.961Z,0.60
2023-02-20T13:11:13.250Z,0.60
2023-02-20T13:13:58.386Z,0.60
2023-02-20T13:16:38.825Z,0.50
2023-02-20T13:19:37.174Z,0.50
2023-02-20T13:22:07.874Z,0.50
2023-02-20T13:24:40.113Z,0.60
2023-02-20T13:27:11.471Z,0.50
2023-02-20T13:30:21.780Z,0.50
2023-02-20T13:33:30.343Z,0.50
2023-02-20T13:36:00.000Z,0.50
2023-02-20T13:38:29.690Z,0.50
2023-02-20T13:41:01.218Z,0.50
2023-02-20T13:43:37.347Z,0.50
2023-02-20T13:46:15.989Z,0.60
2023-02-20T13:48:48.409Z,0.50
2023-02-20T13:51:17.469Z,0.50
2023-02-20T13:53:51.376Z,0.50
2023-02-20T13:56:22.422Z,0.50
2023-02-20T13:58:54.606Z,0.50
2023-02-20T14:01:24.213Z,0.50
2023-02-20T14:04:08.017Z,0.50
2023-02-20T14:06:58.158Z,0.50
2023-02-20T14:09:33.044Z,0.55
2023-02-20T14:12:14.933Z,0.55
2023-02-20T14:14:47.096Z,0.50
2023-02-20T14:17:25.336Z,0.60
2023-02-20T14:20:13.370Z,0.60
2023-02-20T14:22:43.502Z,0.60
2023-02-20T14:25:18.517Z,0.52
2023-02-20T14:27:50.068Z,0.60
2023-02-20T14:30:29.225Z,0.55
2023-02-20T14:32:59.567Z,0.60
2023-02-20T14:35:28.477Z,0.60
2023-02-20T14:38:08.285Z,0.60
2023-02-20T14:40:45.024Z,0.60
2023-02-20T14:46:19.819Z,0.70
2023-02-20T14:48:48.881Z,0.60
2023-02-20T14:51:26.227Z,0.60
2023-02-20T14:54:03.659Z,0.60
2023-02-20T14:56:34.146Z,0.60
2023-02-20T14:59:35.101Z,0.60
2023-02-20T15:02:07.467Z,0.60
2023-02-20T15:04:37.480Z,0.60
2023-02-20T15:07:08.903Z,0.60
2023-02-20T15:09:44.091Z,0.70
2023-02-20T15:12:28.207Z,0.60
2023-02-20T15:15:01.592Z,0.60
2023-02-20T15:17:35.849Z,0.70
2023-02-20T15:20:33.234Z,0.60
2023-02-20T15:23:21.364Z,0.70
2023-02-20T15:25:50.445Z,0.60
2023-02-20T15:28:19.513Z,0.60
2023-02-20T15:31:20.983Z,0.70
2023-02-20T15:33:54.104Z,0.60
2023-02-20T15:36:26.381Z,0.70
2023-02-20T15:38:57.521Z,0.60
2023-02-20T15:41:26.485Z,0.60
2023-02-20T15:43:55.320Z,0.60
2023-02-20T15:46:24.411Z,0.60
2023-02-20T15:48:55.037Z,0.60
2023-02-20T15:51:26.158Z,0.60
2023-02-20T15:53:57.570Z,0.60
2023-02-20T15:56:34.755Z,0.60
2023-02-20T15:59:08.524Z,0.60
2023-02-20T16:01:38.747Z,0.50
2023-02-20T16:04:09.611Z,0.60
2023-02-20T16:06:38.556Z,0.57
2023-02-20T16:09:07.498Z,0.60
2023-02-20T16:11:44.557Z,0.60
2023-02-20T16:14:15.604Z,0.60
2023-02-20T16:16:47.770Z,0.60
2023-02-20T16:19:24.041Z,0.60
2023-02-20T16:22:00.079Z,0.50
2023-02-20T16:24:29.149Z,0.60
2023-02-20T16:26:58.291Z,0.60
2023-02-20T16:29:33.315Z,0.50
2023-02-20T16:32:02.316Z,0.60
2023-02-20T16:34:33.078Z,0.55
2023-02-20T16:37:03.771Z,0.60
2023-02-20T16:39:32.684Z,0.50
2023-02-20T16:42:03.243Z,0.60
2023-02-20T16:44:43.731Z,0.60
2023-02-20T16:47:19.087Z,0.50
2023-02-20T16:49:49.860Z,0.50
2023-02-20T16:52:39.368Z,0.60
2023-02-20T16:55:22.118Z,0.50
2023-02-20T16:57:51.847Z,0.50
2023-02-20T17:00:30.025Z,0.60
2023-02-20T17:02:59.243Z,0.60
2023-02-20T17:05:31.718Z,0.55
2023-02-20T17:08:01.506Z,0.60
2023-02-20T17:10:31.259Z,0.60
2023-02-20T17:13:00.184Z,0.60
2023-02-20T17:15:29.158Z,0.60
2023-02-20T17:17:58.239Z,0.55
2023-02-20T17:20:28.397Z,0.50
2023-02-20T17:23:04.653Z,0.60
2023-02-20T17:25:35.449Z,0.60
2023-02-20T17:28:06.348Z,0.52
2023-02-20T17:30:35.393Z,0.50
2023-02-20T17:33:04.339Z,0.60
2023-02-20T17:35:33.201Z,0.60
2023-02-20T17:38:01.977Z,0.60
2023-02-20T17:40:30.915Z,0.52
2023-02-20T17:42:59.739Z,0.60
2023-02-20T17:45:28.581Z,0.60
2023-02-20T17:47:57.627Z,0.50
2023-02-20T17:50:26.626Z,0.50
2023-02-20T17:52:55.979Z,0.60
2023-02-20T17:55:27.724Z,0.50
2023-02-20T17:57:56.575Z,0.50
2023-02-20T18:00:26.057Z,0.50
2023-02-20T18:02:55.169Z,0.50
2023-02-20T18:05:24.012Z,0.50
2023-02-20T18:07:52.829Z,0.50
2023-02-20T18:10:22.123Z,0.50
2023-02-20T18:13:03.173Z,0.50
2023-02-20T18:15:36.971Z,0.55
2023-02-20T18:18:06.210Z,0.55
2023-02-20T18:20:35.240Z,0.50
2023-02-20T18:23:04.326Z,0.60
2023-02-20T18:25:40.369Z,0.50
2023-02-20T18:28:11.726Z,0.60
2023-02-20T18:30:41.515Z,0.60
2023-02-20T18:33:10.390Z,0.55
2023-02-20T18:35:39.231Z,0.60
2023-02-20T18:38:09.826Z,0.60
2023-02-20T18:40:38.794Z,0.50
2023-02-20T18:43:09.083Z,0.60
2023-02-20T18:45:38.027Z,0.60
2023-02-20T18:48:07.666Z,0.57
2023-02-20T18:50:36.580Z,0.60
2023-02-20T18:53:05.485Z,0.60
2023-02-20T18:55:34.353Z,0.50
2023-02-20T18:58:03.191Z,0.60
2023-02-20T19:00:35.380Z,0.60
2023-02-20T19:03:05.046Z,0.60
2023-02-20T19:05:34.072Z,0.60
2023-02-20T19:08:04.559Z,0.60
2023-02-20T19:10:33.715Z,0.60
2023-02-20T19:13:03.087Z,0.60
2023-02-20T19:15:31.926Z,0.60
2023-02-20T19:18:00.785Z,0.60
2023-02-20T19:20:32.184Z,0.60
2023-02-20T19:23:02.809Z,0.60
2023-02-20T19:25:31.821Z,0.68
2023-02-20T19:28:00.730Z,0.60
2023-02-20T19:30:29.688Z,0.60
2023-02-20T19:32:58.648Z,0.60
2023-02-20T19:35:27.450Z,0.60
2023-02-20T19:37:56.266Z,0.60
2023-02-20T19:40:25.143Z,0.60
2023-02-20T19:42:53.919Z,0.60
2023-02-20T19:45:22.904Z,0.60
2023-02-20T19:47:51.886Z,0.60
2023-02-20T19:50:21.501Z,0.70
2023-02-20T19:52:50.425Z,0.70
2023-02-20T19:55:21.438Z,0.60
2023-02-20T19:57:50.443Z,0.60
2023-02-20T20:00:21.457Z,0.60
2023-02-20T20:02:55.456Z,0.60
2023-02-20T20:05:24.570Z,0.63
2023-02-20T20:07:53.418Z,0.60
2023-02-20T20:10:23.410Z,0.60
2023-02-20T20:12:52.189Z,0.63
2023-02-20T20:15:23.531Z,0.60
2023-02-20T20:17:59.139Z,0.60
2023-02-20T20:20:29.997Z,0.60
2023-02-20T20:23:02.314Z,0.60
2023-02-20T20:25:31.094Z,0.65
2023-02-20T20:28:02.792Z,0.70
2023-02-20T20:30:32.698Z,0.60
2023-02-20T20:33:01.580Z,0.60
2023-02-20T20:35:31.349Z,0.60
2023-02-20T20:38:01.445Z,0.60
2023-02-20T20:40:31.098Z,0.60
2023-02-20T20:43:00.459Z,0.63
2023-02-20T20:45:29.483Z,0.70
2023-02-20T20:47:58.241Z,0.60
2023-02-20T20:50:28.406Z,0.70
2023-02-20T20:53:01.348Z,0.70
2023-02-20T20:55:30.656Z,0.70
2023-02-20T20:57:59.461Z,0.70
2023-02-20T21:00:31.582Z,0.70
2023-02-20T21:03:01.091Z,0.60
2023-02-20T21:05:33.201Z,0.70
2023-02-20T21:08:02.766Z,0.70
2023-02-20T21:10:31.622Z,0.70
2023-02-20T21:13:00.624Z,0.70
2023-02-20T21:15:29.805Z,0.70
2023-02-20T21:17:58.791Z,0.70
2023-02-20T21:20:29.931Z,0.70
2023-02-20T21:23:00.798Z,0.70
2023-02-20T21:25:30.341Z,0.65
2023-02-20T21:27:59.595Z,0.70
2023-02-20T21:30:28.786Z,0.70
2023-02-20T21:32:57.619Z,0.70
2023-02-20T21:35:26.745Z,0.70
2023-02-20T21:37:55.725Z,0.70
2023-02-20T21:40:24.691Z,0.70
2023-02-20T21:43:12.031Z,0.70
2023-02-20T21:45:40.983Z,0.70
2023-02-20T21:48:11.040Z,0.70
2023-02-20T21:50:41.173Z,0.70
2023-02-20T21:53:09.914Z,0.70
2023-02-20T21:55:38.852Z,0.70
2023-02-20T21:58:08.020Z,0.70
2023-02-20T22:00:37.584Z,0.70
2023-02-20T22:03:06.700Z,0.70
2023-02-20T22:05:35.424Z,0.70
2023-02-20T22:08:22.592Z,0.70
2023-02-20T22:11:10.020Z,0.70
2023-02-20T22:13:57.386Z,0.70
2023-02-20T22:16:44.843Z,0.68
2023-02-20T22:19:32.288Z,0.70
2023-02-20T22:22:20.086Z,0.70
2023-02-20T22:25:07.431Z,0.70
2023-02-20T22:27:54.684Z,0.60
2023-02-20T22:30:42.081Z,0.70
2023-02-20T22:33:29.524Z,0.60
2023-02-20T22:36:16.797Z,0.60
2023-02-20T22:39:04.102Z,0.70
2023-02-20T22:41:51.429Z,0.70
2023-02-20T22:44:38.729Z,0.70
2023-02-20T22:47:26.083Z,0.68
2023-02-20T22:50:13.068Z,0.60
2023-02-20T22:53:00.584Z,0.70
2023-02-20T22:55:48.124Z,0.60
2023-02-20T22:58:35.350Z,0.68
2023-02-20T23:01:22.971Z,0.70
2023-02-20T23:04:10.331Z,0.60
2023-02-20T23:06:57.838Z,0.70
2023-02-20T23:09:45.085Z,0.70
2023-02-20T23:12:32.815Z,0.70
2023-02-20T23:15:20.315Z,0.60
2023-02-20T23:18:07.355Z,0.70
2023-02-20T23:20:54.430Z,0.60
2023-02-20T23:23:41.756Z,0.60
2023-02-20T23:26:31.250Z,0.70
2023-02-20T23:29:18.500Z,0.70
2023-02-20T23:32:05.756Z,0.70
2023-02-20T23:34:53.118Z,0.70
2023-02-20T23:37:40.776Z,0.60
2023-02-20T23:40:36.591Z,0.70
2023-02-20T23:43:25.393Z,0.70
2023-02-20T23:46:13.274Z,0.65
2023-02-20T23:49:00.318Z,0.60
2023-02-20T23:51:47.908Z,0.70
2023-02-20T23:54:35.325Z,0.60
2023-02-20T23:57:22.666Z,0.70
